sensor_id;sensor_type;location;lat;lon;timestamp;pressure;altitude;pressure_sealevel;temperature;humidity
55994;BME280;67425;52.126;20.638;2023-07-13T00:02:16;57493.50;;;-144.78;74.26
55994;BME280;67425;52.126;20.638;2023-07-13T00:04:42;57489.34;;;-144.78;75.96
55994;BME280;67425;52.126;20.638;2023-07-13T00:07:08;57487.28;;;-144.78;73.59
55994;BME280;67425;52.126;20.638;2023-07-13T00:09:34;57489.34;;;-144.78;72.86
55994;BME280;67425;52.126;20.638;2023-07-13T00:12:00;57487.28;;;-144.78;70.48
55994;BME280;67425;52.126;20.638;2023-07-13T00:14:27;57485.19;;;-144.78;72.05
55994;BME280;67425;52.126;20.638;2023-07-13T00:16:53;57483.13;;;-144.78;71.24
55994;BME280;67425;52.126;20.638;2023-07-13T00:19:18;57495.56;;;-144.78;70.67
55994;BME280;67425;52.126;20.638;2023-07-13T00:21:44;57481.03;;;-144.78;71.16
55994;BME280;67425;52.126;20.638;2023-07-13T00:24:13;57487.28;;;-144.78;71.31
55994;BME280;67425;52.126;20.638;2023-07-13T00:26:39;57499.72;;;-144.78;70.42
55994;BME280;67425;52.126;20.638;2023-07-13T00:29:05;57462.34;;;-144.78;69.84
55994;BME280;67425;52.126;20.638;2023-07-13T00:31:34;57485.19;;;-144.78;70.40
55994;BME280;67425;52.126;20.638;2023-07-13T00:34:01;57487.28;;;-144.78;70.68
55994;BME280;67425;52.126;20.638;2023-07-13T00:36:26;57472.72;;;-144.78;73.43
55994;BME280;67425;52.126;20.638;2023-07-13T00:38:52;57501.81;;;-144.78;72.44
55994;BME280;67425;52.126;20.638;2023-07-13T00:41:18;57503.88;;;-144.78;70.67
55994;BME280;67425;52.126;20.638;2023-07-13T00:43:43;57470.66;;;-144.78;70.35
55994;BME280;67425;52.126;20.638;2023-07-13T00:46:44;57456.13;;;-144.78;71.09
55994;BME280;67425;52.126;20.638;2023-07-13T00:49:06;57491.41;;;-144.78;70.41
55994;BME280;67425;52.126;20.638;2023-07-13T00:51:39;57472.72;;;-144.78;70.52
55994;BME280;67425;52.126;20.638;2023-07-13T00:54:10;57491.41;;;-144.78;71.94
55994;BME280;67425;52.126;20.638;2023-07-13T00:56:37;57508.03;;;-144.78;75.83
55994;BME280;67425;52.126;20.638;2023-07-13T00:59:05;57478.97;;;-144.78;73.11
55994;BME280;67425;52.126;20.638;2023-07-13T01:01:31;57466.50;;;-144.78;73.06
55994;BME280;67425;52.126;20.638;2023-07-13T01:03:57;57520.50;;;-144.78;74.04
55994;BME280;67425;52.126;20.638;2023-07-13T01:06:22;57503.88;;;-144.78;74.27
55994;BME280;67425;52.126;20.638;2023-07-13T01:08:48;57501.81;;;-144.78;74.28
55994;BME280;67425;52.126;20.638;2023-07-13T01:11:18;57485.19;;;-144.78;73.53
55994;BME280;67425;52.126;20.638;2023-07-13T01:13:44;57491.41;;;-144.78;73.79
55994;BME280;67425;52.126;20.638;2023-07-13T01:16:28;57497.66;;;-144.78;72.60
55994;BME280;67425;52.126;20.638;2023-07-13T01:18:55;57483.13;;;-144.78;71.63
55994;BME280;67425;52.126;20.638;2023-07-13T01:21:25;57489.34;;;-144.78;71.24
55994;BME280;67425;52.126;20.638;2023-07-13T01:23:51;57483.13;;;-144.78;72.44
55994;BME280;67425;52.126;20.638;2023-07-13T01:26:17;57487.28;;;-144.78;73.31
55994;BME280;67425;52.126;20.638;2023-07-13T01:28:42;57505.97;;;-144.78;74.83
55994;BME280;67425;52.126;20.638;2023-07-13T01:31:08;57476.88;;;-144.78;72.53
55994;BME280;67425;52.126;20.638;2023-07-13T01:33:38;57493.50;;;-144.78;71.96
55994;BME280;67425;52.126;20.638;2023-07-13T01:36:05;57512.19;;;-144.78;72.33
55994;BME280;67425;52.126;20.638;2023-07-13T01:38:32;57478.97;;;-144.78;71.43
55994;BME280;67425;52.126;20.638;2023-07-13T01:40:58;57487.28;;;-144.78;71.87
55994;BME280;67425;52.126;20.638;2023-07-13T01:43:24;57468.56;;;-144.78;72.22
55994;BME280;67425;52.126;20.638;2023-07-13T01:45:49;57478.97;;;-144.78;72.53
55994;BME280;67425;52.126;20.638;2023-07-13T01:48:15;57495.56;;;-144.78;72.41
55994;BME280;67425;52.126;20.638;2023-07-13T01:50:40;57493.50;;;-144.78;72.76
55994;BME280;67425;52.126;20.638;2023-07-13T01:53:06;57493.50;;;-144.78;72.93
55994;BME280;67425;52.126;20.638;2023-07-13T01:55:31;57495.56;;;-144.78;72.33
55994;BME280;67425;52.126;20.638;2023-07-13T01:57:56;57505.97;;;-144.78;71.52
55994;BME280;67425;52.126;20.638;2023-07-13T02:00:22;57464.41;;;-144.78;71.98
55994;BME280;67425;52.126;20.638;2023-07-13T02:02:47;57493.50;;;-144.78;71.43
55994;BME280;67425;52.126;20.638;2023-07-13T02:05:13;57491.41;;;-144.78;71.84
55994;BME280;67425;52.126;20.638;2023-07-13T02:07:39;57481.03;;;-144.78;70.90
55994;BME280;67425;52.126;20.638;2023-07-13T02:10:06;57470.66;;;-144.78;69.93
55994;BME280;67425;52.126;20.638;2023-07-13T02:12:31;57499.72;;;-144.78;71.07
55994;BME280;67425;52.126;20.638;2023-07-13T02:14:57;57497.66;;;-144.78;70.96
55994;BME280;67425;52.126;20.638;2023-07-13T02:17:22;57481.03;;;-144.78;70.59
55994;BME280;67425;52.126;20.638;2023-07-13T02:19:47;57491.41;;;-144.78;70.98
55994;BME280;67425;52.126;20.638;2023-07-13T02:22:13;57476.88;;;-144.78;71.28
55994;BME280;67425;52.126;20.638;2023-07-13T02:24:38;57487.28;;;-144.78;70.62
55994;BME280;67425;52.126;20.638;2023-07-13T02:27:04;57478.97;;;-144.78;70.29
55994;BME280;67425;52.126;20.638;2023-07-13T02:29:29;57478.97;;;-144.78;70.56
55994;BME280;67425;52.126;20.638;2023-07-13T02:31:55;57443.66;;;-144.78;70.12
55994;BME280;67425;52.126;20.638;2023-07-13T02:34:20;57499.72;;;-144.78;69.68
55994;BME280;67425;52.126;20.638;2023-07-13T02:36:46;57476.88;;;-144.78;69.34
55994;BME280;67425;52.126;20.638;2023-07-13T02:39:12;57485.19;;;-144.78;70.48
55994;BME280;67425;52.126;20.638;2023-07-13T02:41:37;57493.50;;;-144.78;71.23
55994;BME280;67425;52.126;20.638;2023-07-13T02:44:03;57487.28;;;-144.78;71.62
55994;BME280;67425;52.126;20.638;2023-07-13T02:46:36;57499.72;;;-144.78;69.66
55994;BME280;67425;52.126;20.638;2023-07-13T02:49:02;57485.19;;;-144.78;70.25
55994;BME280;67425;52.126;20.638;2023-07-13T02:51:28;57487.28;;;-144.78;70.52
55994;BME280;67425;52.126;20.638;2023-07-13T02:53:53;57497.66;;;-144.78;71.63
55994;BME280;67425;52.126;20.638;2023-07-13T02:56:23;57501.81;;;-144.78;71.56
55994;BME280;67425;52.126;20.638;2023-07-13T02:58:49;57481.03;;;-144.78;71.92
55994;BME280;67425;52.126;20.638;2023-07-13T03:01:14;57460.28;;;-144.78;70.81
55994;BME280;67425;52.126;20.638;2023-07-13T03:03:44;57487.28;;;-144.78;70.26
55994;BME280;67425;52.126;20.638;2023-07-13T03:06:10;57497.66;;;-144.78;70.31
55994;BME280;67425;52.126;20.638;2023-07-13T03:08:36;57501.81;;;-144.78;70.21
55994;BME280;67425;52.126;20.638;2023-07-13T03:11:12;57495.56;;;-144.78;70.74
55994;BME280;67425;52.126;20.638;2023-07-13T03:13:39;57487.28;;;-144.78;70.13
55994;BME280;67425;52.126;20.638;2023-07-13T03:16:05;57512.19;;;-144.78;71.66
55994;BME280;67425;52.126;20.638;2023-07-13T03:18:31;57503.88;;;-144.78;70.47
55994;BME280;67425;52.126;20.638;2023-07-13T03:20:57;57485.19;;;-144.78;69.75
55994;BME280;67425;52.126;20.638;2023-07-13T03:23:23;57485.19;;;-144.78;69.82
55994;BME280;67425;52.126;20.638;2023-07-13T03:25:48;57491.41;;;-144.78;71.14
55994;BME280;67425;52.126;20.638;2023-07-13T03:28:14;57485.19;;;-144.78;70.67
55994;BME280;67425;52.126;20.638;2023-07-13T03:30:40;57501.81;;;-144.78;69.70
55994;BME280;67425;52.126;20.638;2023-07-13T03:33:05;57478.97;;;-144.78;69.87
55994;BME280;67425;52.126;20.638;2023-07-13T03:35:30;57483.13;;;-144.78;70.13
55994;BME280;67425;52.126;20.638;2023-07-13T03:37:57;57474.81;;;-144.78;70.11
55994;BME280;67425;52.126;20.638;2023-07-13T03:40:24;57485.19;;;-144.78;71.11
55994;BME280;67425;52.126;20.638;2023-07-13T03:42:51;57466.50;;;-144.78;70.80
55994;BME280;67425;52.126;20.638;2023-07-13T03:45:16;57485.19;;;-144.78;70.31
55994;BME280;67425;52.126;20.638;2023-07-13T03:47:42;57478.97;;;-144.78;70.22
55994;BME280;67425;52.126;20.638;2023-07-13T03:50:07;57472.72;;;-144.78;71.80
55994;BME280;67425;52.126;20.638;2023-07-13T03:52:33;57485.19;;;-144.78;72.25
55994;BME280;67425;52.126;20.638;2023-07-13T03:54:58;57491.41;;;-144.78;70.88
55994;BME280;67425;52.126;20.638;2023-07-13T03:57:23;57503.88;;;-144.78;71.83
55994;BME280;67425;52.126;20.638;2023-07-13T03:59:49;57433.28;;;-144.78;70.59
55994;BME280;67425;52.126;20.638;2023-07-13T04:02:14;57489.34;;;-144.78;71.03
55994;BME280;67425;52.126;20.638;2023-07-13T04:04:39;57456.13;;;-144.78;71.07
55994;BME280;67425;52.126;20.638;2023-07-13T04:07:06;57462.34;;;-144.78;71.38
55994;BME280;67425;52.126;20.638;2023-07-13T04:09:32;57456.13;;;-144.78;70.49
55994;BME280;67425;52.126;20.638;2023-07-13T04:11:57;57464.41;;;-144.78;70.54
55994;BME280;67425;52.126;20.638;2023-07-13T04:14:23;57449.88;;;-144.78;70.52
55994;BME280;67425;52.126;20.638;2023-07-13T04:16:48;57445.72;;;-144.78;71.05
55994;BME280;67425;52.126;20.638;2023-07-13T04:19:13;57464.41;;;-144.78;70.91
55994;BME280;67425;52.126;20.638;2023-07-13T04:21:39;57439.50;;;-144.78;71.21
55994;BME280;67425;52.126;20.638;2023-07-13T04:24:04;57435.34;;;-144.78;71.01
55994;BME280;67425;52.126;20.638;2023-07-13T04:26:30;57433.28;;;-144.78;71.90
55994;BME280;67425;52.126;20.638;2023-07-13T04:28:56;57437.44;;;-144.78;70.67
55994;BME280;67425;52.126;20.638;2023-07-13T04:31:21;57445.72;;;-144.78;71.11
55994;BME280;67425;52.126;20.638;2023-07-13T04:33:47;57447.81;;;-144.78;70.78
55994;BME280;67425;52.126;20.638;2023-07-13T04:36:14;57431.19;;;-144.78;70.17
55994;BME280;67425;52.126;20.638;2023-07-13T04:38:40;57424.97;;;-144.78;69.89
55994;BME280;67425;52.126;20.638;2023-07-13T04:41:07;57433.28;;;-144.78;70.48
55994;BME280;67425;52.126;20.638;2023-07-13T04:43:33;57408.34;;;-144.78;70.19
55994;BME280;67425;52.126;20.638;2023-07-13T04:46:07;57470.66;;;-144.78;70.30
55994;BME280;67425;52.126;20.638;2023-07-13T04:48:33;57422.88;;;-144.78;71.71
55994;BME280;67425;52.126;20.638;2023-07-13T04:50:59;57416.66;;;-144.78;70.59
55994;BME280;67425;52.126;20.638;2023-07-13T04:53:25;57429.13;;;-144.78;70.62
55994;BME280;67425;52.126;20.638;2023-07-13T04:55:50;57439.50;;;-144.78;70.61
55994;BME280;67425;52.126;20.638;2023-07-13T04:58:16;57431.19;;;-144.78;69.49
55994;BME280;67425;52.126;20.638;2023-07-13T05:00:42;57427.03;;;-144.78;69.73
55994;BME280;67425;52.126;20.638;2023-07-13T05:03:07;57439.50;;;-144.78;68.93
55994;BME280;67425;52.126;20.638;2023-07-13T05:05:33;57424.97;;;-144.78;69.33
55994;BME280;67425;52.126;20.638;2023-07-13T05:07:59;57422.88;;;-144.78;69.33
55994;BME280;67425;52.126;20.638;2023-07-13T05:10:24;57454.03;;;-144.78;68.66
55994;BME280;67425;52.126;20.638;2023-07-13T05:12:50;57439.50;;;-144.78;68.99
55994;BME280;67425;52.126;20.638;2023-07-13T05:15:15;57435.34;;;-144.78;68.73
55994;BME280;67425;52.126;20.638;2023-07-13T05:17:46;57431.19;;;-144.78;69.01
55994;BME280;67425;52.126;20.638;2023-07-13T05:20:12;57427.03;;;-144.78;69.16
55994;BME280;67425;52.126;20.638;2023-07-13T05:22:38;57435.34;;;-144.78;68.82
55994;BME280;67425;52.126;20.638;2023-07-13T05:25:05;57412.50;;;-144.78;67.17
55994;BME280;67425;52.126;20.638;2023-07-13T05:27:31;57418.72;;;-144.78;67.02
55994;BME280;67425;52.126;20.638;2023-07-13T05:29:56;57420.81;;;-144.78;66.39
55994;BME280;67425;52.126;20.638;2023-07-13T05:32:21;57431.19;;;-144.78;65.04
55994;BME280;67425;52.126;20.638;2023-07-13T05:34:47;57429.13;;;-144.78;64.19
55994;BME280;67425;52.126;20.638;2023-07-13T05:37:12;57441.59;;;-144.78;63.67
55994;BME280;67425;52.126;20.638;2023-07-13T05:39:38;57431.19;;;-144.78;63.96
55994;BME280;67425;52.126;20.638;2023-07-13T05:42:03;57418.72;;;-144.78;63.23
55994;BME280;67425;52.126;20.638;2023-07-13T05:44:29;57435.34;;;-144.78;64.09
55994;BME280;67425;52.126;20.638;2023-07-13T05:46:54;57424.97;;;-144.78;62.98
55994;BME280;67425;52.126;20.638;2023-07-13T05:49:22;57424.97;;;-144.78;64.28
55994;BME280;67425;52.126;20.638;2023-07-13T05:51:47;57439.50;;;-144.78;64.87
55994;BME280;67425;52.126;20.638;2023-07-13T05:54:12;57414.59;;;-144.78;64.73
55994;BME280;67425;52.126;20.638;2023-07-13T05:56:38;57449.88;;;-144.78;64.70
55994;BME280;67425;52.126;20.638;2023-07-13T05:59:03;57418.72;;;-144.78;65.29
55994;BME280;67425;52.126;20.638;2023-07-13T06:01:30;57429.13;;;-144.78;66.52
55994;BME280;67425;52.126;20.638;2023-07-13T06:03:56;57416.66;;;-144.78;66.20
55994;BME280;67425;52.126;20.638;2023-07-13T06:06:21;57414.59;;;-144.78;66.70
55994;BME280;67425;52.126;20.638;2023-07-13T06:08:46;57422.88;;;-144.78;64.38
55994;BME280;67425;52.126;20.638;2023-07-13T06:11:15;57406.28;;;-144.78;63.93
55994;BME280;67425;52.126;20.638;2023-07-13T06:13:41;57391.75;;;-144.78;63.33
55994;BME280;67425;52.126;20.638;2023-07-13T06:16:06;57412.50;;;-144.78;64.61
55994;BME280;67425;52.126;20.638;2023-07-13T06:18:33;57404.19;;;-144.78;62.63
55994;BME280;67425;52.126;20.638;2023-07-13T06:20:59;57404.19;;;-144.78;60.84
55994;BME280;67425;52.126;20.638;2023-07-13T06:23:24;57370.97;;;-144.78;60.65
55994;BME280;67425;52.126;20.638;2023-07-13T06:25:50;57383.44;;;-144.78;60.86
55994;BME280;67425;52.126;20.638;2023-07-13T06:28:16;57366.81;;;-144.78;60.10
55994;BME280;67425;52.126;20.638;2023-07-13T06:30:41;57360.59;;;-144.78;58.43
55994;BME280;67425;52.126;20.638;2023-07-13T06:33:06;57362.66;;;-144.78;57.94
55994;BME280;67425;52.126;20.638;2023-07-13T06:35:32;57343.97;;;-144.78;57.35
55994;BME280;67425;52.126;20.638;2023-07-13T06:37:57;57385.50;;;-144.78;62.03
55994;BME280;67425;52.126;20.638;2023-07-13T06:40:23;57356.44;;;-144.78;59.75
55994;BME280;67425;52.126;20.638;2023-07-13T06:42:48;57343.97;;;-144.78;58.75
55994;BME280;67425;52.126;20.638;2023-07-13T06:45:13;57366.81;;;-144.78;57.36
55994;BME280;67425;52.126;20.638;2023-07-13T06:47:39;57350.19;;;-144.78;55.58
55994;BME280;67425;52.126;20.638;2023-07-13T06:50:04;57366.81;;;-144.78;53.99
55994;BME280;67425;52.126;20.638;2023-07-13T06:52:30;57337.75;;;-144.78;53.13
55994;BME280;67425;52.126;20.638;2023-07-13T06:54:55;57360.59;;;-144.78;53.00
55994;BME280;67425;52.126;20.638;2023-07-13T06:57:21;57346.06;;;-144.78;52.59
55994;BME280;67425;52.126;20.638;2023-07-13T06:59:46;57339.81;;;-144.78;52.87
55994;BME280;67425;52.126;20.638;2023-07-13T07:02:11;57354.34;;;-144.78;52.01
55994;BME280;67425;52.126;20.638;2023-07-13T07:04:37;57350.19;;;-144.78;51.49
55994;BME280;67425;52.126;20.638;2023-07-13T07:07:02;57321.13;;;-144.78;50.46
55994;BME280;67425;52.126;20.638;2023-07-13T07:09:28;57329.44;;;-144.78;50.29
55994;BME280;67425;52.126;20.638;2023-07-13T07:11:55;57358.50;;;-144.78;48.56
55994;BME280;67425;52.126;20.638;2023-07-13T07:14:20;57335.66;;;-144.78;50.92
55994;BME280;67425;52.126;20.638;2023-07-13T07:16:46;57341.91;;;-144.78;49.70
55994;BME280;67425;52.126;20.638;2023-07-13T07:19:11;57360.59;;;-144.78;49.24
55994;BME280;67425;52.126;20.638;2023-07-13T07:21:37;57329.44;;;-144.78;49.83
55994;BME280;67425;52.126;20.638;2023-07-13T07:24:02;57327.34;;;-144.78;49.45
55994;BME280;67425;52.126;20.638;2023-07-13T07:26:29;57370.97;;;-144.78;50.18
55994;BME280;67425;52.126;20.638;2023-07-13T07:28:55;57339.81;;;-144.78;49.79
55994;BME280;67425;52.126;20.638;2023-07-13T07:31:20;57354.34;;;-144.78;48.63
55994;BME280;67425;52.126;20.638;2023-07-13T07:33:45;57348.13;;;-144.78;49.16
55994;BME280;67425;52.126;20.638;2023-07-13T07:36:11;57308.66;;;-144.78;47.32
55994;BME280;67425;52.126;20.638;2023-07-13T07:38:37;57316.97;;;-144.78;48.18
55994;BME280;67425;52.126;20.638;2023-07-13T07:41:05;57314.91;;;-144.78;46.29
55994;BME280;67425;52.126;20.638;2023-07-13T07:43:30;57327.34;;;-144.78;47.10
55994;BME280;67425;52.126;20.638;2023-07-13T07:45:57;57298.28;;;-144.78;46.31
55994;BME280;67425;52.126;20.638;2023-07-13T07:48:22;57308.66;;;-144.78;44.83
55994;BME280;67425;52.126;20.638;2023-07-13T07:50:48;57323.22;;;-144.78;45.00
55994;BME280;67425;52.126;20.638;2023-07-13T07:53:13;57319.06;;;-144.78;45.76
55994;BME280;67425;52.126;20.638;2023-07-13T07:55:39;57319.06;;;-144.78;45.22
55994;BME280;67425;52.126;20.638;2023-07-13T07:58:05;57319.06;;;-144.78;46.07
55994;BME280;67425;52.126;20.638;2023-07-13T08:00:30;57321.13;;;-144.78;45.62
55994;BME280;67425;52.126;20.638;2023-07-13T08:02:57;57327.34;;;-144.78;46.11
55994;BME280;67425;52.126;20.638;2023-07-13T08:05:23;57319.06;;;-144.78;46.77
55994;BME280;67425;52.126;20.638;2023-07-13T08:07:48;57300.38;;;-144.78;45.50
55994;BME280;67425;52.126;20.638;2023-07-13T08:10:13;57310.75;;;-144.78;45.22
55994;BME280;67425;52.126;20.638;2023-07-13T08:12:40;57325.28;;;-144.78;46.12
55994;BME280;67425;52.126;20.638;2023-07-13T08:15:08;57319.06;;;-144.78;44.97
55994;BME280;67425;52.126;20.638;2023-07-13T08:17:34;57292.06;;;-144.78;46.02
55994;BME280;67425;52.126;20.638;2023-07-13T08:19:59;57321.13;;;-144.78;45.06
55994;BME280;67425;52.126;20.638;2023-07-13T08:22:24;57300.38;;;-144.78;45.81
55994;BME280;67425;52.126;20.638;2023-07-13T08:24:50;57310.75;;;-144.78;44.90
55994;BME280;67425;52.126;20.638;2023-07-13T08:27:24;57298.28;;;-144.78;44.19
55994;BME280;67425;52.126;20.638;2023-07-13T08:29:50;57327.34;;;-144.78;44.33
55994;BME280;67425;52.126;20.638;2023-07-13T08:32:16;57285.81;;;-144.78;45.00
55994;BME280;67425;52.126;20.638;2023-07-13T08:34:41;57325.28;;;-144.78;44.80
55994;BME280;67425;52.126;20.638;2023-07-13T08:37:08;57273.38;;;-144.78;44.15
55994;BME280;67425;52.126;20.638;2023-07-13T08:39:34;57321.13;;;-144.78;45.03
55994;BME280;67425;52.126;20.638;2023-07-13T08:42:05;57298.28;;;-144.78;44.05
55994;BME280;67425;52.126;20.638;2023-07-13T08:47:33;57304.50;;;-144.78;44.77
55994;BME280;67425;52.126;20.638;2023-07-13T08:49:59;57329.44;;;-144.78;45.39
55994;BME280;67425;52.126;20.638;2023-07-13T08:52:47;57321.13;;;-144.78;44.60
55994;BME280;67425;52.126;20.638;2023-07-13T08:55:24;57348.13;;;-144.78;44.90
55994;BME280;67425;52.126;20.638;2023-07-13T08:58:00;57310.75;;;-144.78;44.89
55994;BME280;67425;52.126;20.638;2023-07-13T09:00:36;57325.28;;;-144.78;44.08
55994;BME280;67425;52.126;20.638;2023-07-13T09:03:04;57316.97;;;-144.78;44.05
55994;BME280;67425;52.126;20.638;2023-07-13T09:05:38;57321.13;;;-144.78;44.75
55994;BME280;67425;52.126;20.638;2023-07-13T09:08:33;57348.13;;;-144.78;43.99
55994;BME280;67425;52.126;20.638;2023-07-13T09:11:30;57327.34;;;-144.78;43.49
55994;BME280;67425;52.126;20.638;2023-07-13T09:16:30;57308.66;;;-144.78;44.06
55994;BME280;67425;52.126;20.638;2023-07-13T09:19:05;57314.91;;;-144.78;43.98
55994;BME280;67425;52.126;20.638;2023-07-13T09:21:37;57360.59;;;-144.78;45.49
55994;BME280;67425;52.126;20.638;2023-07-13T09:26:59;57321.13;;;-144.78;44.45
55994;BME280;67425;52.126;20.638;2023-07-13T09:29:30;57302.44;;;-144.78;42.92
55994;BME280;67425;52.126;20.638;2023-07-13T09:32:03;57335.66;;;-144.78;43.09
55994;BME280;67425;52.126;20.638;2023-07-13T09:34:32;57294.13;;;-144.78;43.69
55994;BME280;67425;52.126;20.638;2023-07-13T09:36:58;57296.22;;;-144.78;43.24
55994;BME280;67425;52.126;20.638;2023-07-13T09:39:33;57312.81;;;-144.78;43.86
55994;BME280;67425;52.126;20.638;2023-07-13T09:42:15;57335.66;;;-144.78;43.44
55994;BME280;67425;52.126;20.638;2023-07-13T09:49:54;57343.97;;;-144.78;43.10
55994;BME280;67425;52.126;20.638;2023-07-13T09:52:20;57352.28;;;-144.78;43.15
55994;BME280;67425;52.126;20.638;2023-07-13T09:54:48;57327.34;;;-144.78;42.99
55994;BME280;67425;52.126;20.638;2023-07-13T09:57:22;57327.34;;;-144.78;42.80
55994;BME280;67425;52.126;20.638;2023-07-13T09:59:50;57373.06;;;-144.78;44.34
55994;BME280;67425;52.126;20.638;2023-07-13T10:02:30;57375.13;;;-144.78;45.98
55994;BME280;67425;52.126;20.638;2023-07-13T10:05:05;57375.13;;;-144.78;47.63
55994;BME280;67425;52.126;20.638;2023-07-13T10:07:32;57368.91;;;-144.78;52.07
55994;BME280;67425;52.126;20.638;2023-07-13T10:10:02;57393.81;;;-144.78;54.38
55994;BME280;67425;52.126;20.638;2023-07-13T10:12:30;57418.72;;;-144.78;56.35
55994;BME280;67425;52.126;20.638;2023-07-13T10:14:58;57412.50;;;-144.78;61.58
55994;BME280;67425;52.126;20.638;2023-07-13T10:17:34;57439.50;;;-144.78;63.48
55994;BME280;67425;52.126;20.638;2023-07-13T10:20:04;57445.72;;;-144.78;61.04
55994;BME280;67425;52.126;20.638;2023-07-13T10:25:18;57449.88;;;-144.78;67.68
55994;BME280;67425;52.126;20.638;2023-07-13T10:27:45;57454.03;;;-144.78;67.60
55994;BME280;67425;52.126;20.638;2023-07-13T10:32:39;57497.66;;;-144.78;71.50
55994;BME280;67425;52.126;20.638;2023-07-13T10:35:05;57493.50;;;-144.78;71.25
55994;BME280;67425;52.126;20.638;2023-07-13T10:37:51;57456.13;;;-144.78;70.10
55994;BME280;67425;52.126;20.638;2023-07-13T10:40:19;57481.03;;;-144.78;72.26
55994;BME280;67425;52.126;20.638;2023-07-13T10:42:48;57451.97;;;-144.78;74.03
55994;BME280;67425;52.126;20.638;2023-07-13T10:45:21;57497.66;;;-144.78;77.40
55994;BME280;67425;52.126;20.638;2023-07-13T10:47:51;57460.28;;;-144.78;73.14
55994;BME280;67425;52.126;20.638;2023-07-13T10:50:22;57468.56;;;-144.78;74.21
55994;BME280;67425;52.126;20.638;2023-07-13T10:52:50;57464.41;;;-144.78;73.70
55994;BME280;67425;52.126;20.638;2023-07-13T10:55:37;57462.34;;;-144.78;70.22
55994;BME280;67425;52.126;20.638;2023-07-13T10:58:15;57481.03;;;-144.78;71.56
55994;BME280;67425;52.126;20.638;2023-07-13T11:00:47;57491.41;;;-144.78;71.85
55994;BME280;67425;52.126;20.638;2023-07-13T11:03:15;57472.72;;;-144.78;71.42
55994;BME280;67425;52.126;20.638;2023-07-13T11:05:42;57505.97;;;-144.78;74.46
55994;BME280;67425;52.126;20.638;2023-07-13T11:08:20;57499.72;;;-144.78;73.37
55994;BME280;67425;52.126;20.638;2023-07-13T11:10:54;57518.41;;;-144.78;76.35
55994;BME280;67425;52.126;20.638;2023-07-13T11:16:34;57470.66;;;-144.78;76.72
55994;BME280;67425;52.126;20.638;2023-07-13T11:21:29;57505.97;;;-144.78;75.21
55994;BME280;67425;52.126;20.638;2023-07-13T11:24:14;57481.03;;;-144.78;76.42
55994;BME280;67425;52.126;20.638;2023-07-13T11:31:43;57474.81;;;-144.78;79.96
55994;BME280;67425;52.126;20.638;2023-07-13T11:34:16;57460.28;;;-144.78;77.76
55994;BME280;67425;52.126;20.638;2023-07-13T11:36:44;57485.19;;;-144.78;78.54
55994;BME280;67425;52.126;20.638;2023-07-13T11:39:32;57483.13;;;-144.78;78.96
55994;BME280;67425;52.126;20.638;2023-07-13T11:42:05;57493.50;;;-144.78;77.37
55994;BME280;67425;52.126;20.638;2023-07-13T11:44:32;57499.72;;;-144.78;76.41
55994;BME280;67425;52.126;20.638;2023-07-13T11:47:00;57489.34;;;-144.78;77.95
55994;BME280;67425;52.126;20.638;2023-07-13T11:49:44;57447.81;;;-144.78;76.84
55994;BME280;67425;52.126;20.638;2023-07-13T11:52:34;57472.72;;;-144.78;76.89
55994;BME280;67425;52.126;20.638;2023-07-13T11:55:04;57478.97;;;-144.78;77.93
55994;BME280;67425;52.126;20.638;2023-07-13T11:57:53;57476.88;;;-144.78;78.12
55994;BME280;67425;52.126;20.638;2023-07-13T12:00:23;57476.88;;;-144.78;76.50
55994;BME280;67425;52.126;20.638;2023-07-13T12:02:53;57462.34;;;-144.78;76.82
55994;BME280;67425;52.126;20.638;2023-07-13T12:05:20;57462.34;;;-144.78;77.94
55994;BME280;67425;52.126;20.638;2023-07-13T12:07:46;57483.13;;;-144.78;82.97
55994;BME280;67425;52.126;20.638;2023-07-13T12:12:40;57451.97;;;-144.78;81.94
55994;BME280;67425;52.126;20.638;2023-07-13T12:15:11;57437.44;;;-144.78;80.52
55994;BME280;67425;52.126;20.638;2023-07-13T12:17:37;57447.81;;;-144.78;79.12
55994;BME280;67425;52.126;20.638;2023-07-13T12:20:17;57443.66;;;-144.78;80.47
55994;BME280;67425;52.126;20.638;2023-07-13T12:22:48;57462.34;;;-144.78;80.89
55994;BME280;67425;52.126;20.638;2023-07-13T12:25:15;57439.50;;;-144.78;79.29
55994;BME280;67425;52.126;20.638;2023-07-13T12:27:40;57460.28;;;-144.78;78.36
55994;BME280;67425;52.126;20.638;2023-07-13T12:30:27;57431.19;;;-144.78;78.44
55994;BME280;67425;52.126;20.638;2023-07-13T12:33:00;57429.13;;;-144.78;77.21
55994;BME280;67425;52.126;20.638;2023-07-13T12:35:28;57429.13;;;-144.78;76.55
55994;BME280;67425;52.126;20.638;2023-07-13T12:37:57;57447.81;;;-144.78;76.56
55994;BME280;67425;52.126;20.638;2023-07-13T12:40:28;57427.03;;;-144.78;77.15
55994;BME280;67425;52.126;20.638;2023-07-13T12:42:56;57447.81;;;-144.78;75.60
55994;BME280;67425;52.126;20.638;2023-07-13T12:45:25;57429.13;;;-144.78;74.25
55994;BME280;67425;52.126;20.638;2023-07-13T12:47:55;57435.34;;;-144.78;75.42
55994;BME280;67425;52.126;20.638;2023-07-13T12:50:22;57439.50;;;-144.78;76.14
55994;BME280;67425;52.126;20.638;2023-07-13T12:52:53;57429.13;;;-144.78;75.72
55994;BME280;67425;52.126;20.638;2023-07-13T12:55:21;57443.66;;;-144.78;75.26
55994;BME280;67425;52.126;20.638;2023-07-13T12:57:56;57456.13;;;-144.78;73.94
55994;BME280;67425;52.126;20.638;2023-07-13T13:00:35;57395.88;;;-144.78;73.73
55994;BME280;67425;52.126;20.638;2023-07-13T13:03:11;57439.50;;;-144.78;73.79
55994;BME280;67425;52.126;20.638;2023-07-13T13:05:41;57422.88;;;-144.78;73.11
55994;BME280;67425;52.126;20.638;2023-07-13T13:08:11;57451.97;;;-144.78;72.72